Time;durP1;ratioP1;P1;durP2;ratioP2;P2;SDS_P1;SDS_P2;PMS_P1;PMS_P2;Temp;Humidity;BMP_temperature;BMP_pressure;BME280_temperature;BME280_humidity;BME280_pressure;Samples;Min_cycle;Max_cycle;Signal;HPM_P1;HPM_P2
2022/04/07 00:00:31;;;;;;;2.70;0.70;;;;;;;7.79;100.00;94479.59;5020637;28;24504;-74
2022/04/07 00:02:57;;;;;;;0.70;0.47;;;;;;;7.71;100.00;94475.00;5021459;28;24810;-74
2022/04/07 00:05:23;;;;;;;0.65;0.57;;;;;;;7.81;100.00;94464.00;5027850;28;24432;-74
2022/04/07 00:07:50;;;;;;;0.82;0.65;;;;;;;7.74;100.00;94461.03;5016279;28;24463;-73
2022/04/07 00:10:17;;;;;;;0.52;0.50;;;;;;;7.71;100.00;94456.97;5031898;28;25007;-73
2022/04/07 00:12:45;;;;;;;0.70;0.60;;;;;;;7.75;100.00;94462.72;5022776;28;24475;-73
2022/04/07 00:15:12;;;;;;;0.75;0.45;;;;;;;7.75;100.00;94458.38;5012997;28;20790;-73
2022/04/07 00:17:39;;;;;;;0.57;0.52;;;;;;;7.77;100.00;94450.53;5030261;28;24837;-73
2022/04/07 00:20:06;;;;;;;1.00;0.47;;;;;;;7.69;100.00;94445.94;5028332;28;25005;-73
2022/04/07 00:22:34;;;;;;;0.90;0.45;;;;;;;7.60;100.00;94450.91;5017402;28;24535;-74
2022/04/07 00:25:00;;;;;;;2.80;0.68;;;;;;;7.58;100.00;94448.47;5013013;28;20815;-73
2022/04/07 00:27:27;;;;;;;0.65;0.43;;;;;;;7.65;100.00;94439.34;5027696;28;24815;-73
2022/04/07 00:29:55;;;;;;;0.30;0.30;;;;;;;7.71;100.00;94435.50;5029569;28;24450;-74
2022/04/07 00:32:21;;;;;;;0.50;0.50;;;;;;;7.67;100.00;94442.63;5013846;28;24440;-74
2022/04/07 00:34:49;;;;;;;0.40;0.30;;;;;;;7.75;100.00;94434.38;5022052;28;24456;-74
2022/04/07 00:37:16;;;;;;;0.30;0.30;;;;;;;7.74;100.00;94430.94;5025736;28;24435;-74
2022/04/07 00:39:42;;;;;;;0.90;0.50;;;;;;;7.80;100.00;94421.13;5012926;28;20797;-73
2022/04/07 00:42:09;;;;;;;0.75;0.43;;;;;;;7.82;100.00;94420.06;5027451;28;25012;-73
2022/04/07 00:44:35;;;;;;;1.33;0.60;;;;;;;7.76;100.00;94423.94;5019993;28;24556;-73
2022/04/07 00:47:04;;;;;;;0.43;0.32;;;;;;;7.71;100.00;94422.59;5032087;28;24486;-74
2022/04/07 00:49:30;;;;;;;1.00;0.30;;;;;;;7.77;100.00;94414.44;5015296;28;24820;-74
2022/04/07 00:51:57;;;;;;;0.60;0.33;;;;;;;7.72;100.00;94406.22;5013645;28;24439;-73
2022/04/07 00:54:23;;;;;;;0.50;0.40;;;;;;;7.72;100.00;94395.94;5031426;28;24439;-73
2022/04/07 00:56:50;;;;;;;0.70;0.30;;;;;;;7.79;100.00;94404.00;5022978;28;24842;-74
2022/04/07 00:59:18;;;;;;;0.40;0.40;;;;;;;7.83;100.00;94413.19;5025832;28;24836;-74
2022/04/07 01:01:45;;;;;;;0.50;0.20;;;;;;;7.68;100.00;94405.63;5028335;28;24523;-73
2022/04/07 01:04:13;;;;;;;0.50;0.20;;;;;;;7.57;100.00;94408.16;5016353;28;24524;-73
2022/04/07 01:06:41;;;;;;;0.40;0.40;;;;;;;7.54;100.00;94403.25;5023178;28;24463;-73
2022/04/07 01:09:08;;;;;;;1.00;0.50;;;;;;;7.42;100.00;94407.53;5023404;28;24439;-73
2022/04/07 01:11:35;;;;;;;1.17;0.80;;;;;;;7.39;100.00;94400.00;5030127;28;24595;-73
2022/04/07 01:14:02;;;;;;;1.98;1.10;;;;;;;7.39;100.00;94384.56;5031016;28;24431;-73
2022/04/07 01:16:30;;;;;;;1.90;1.20;;;;;;;7.32;100.00;94393.66;5028096;28;24456;-74
2022/04/07 01:18:59;;;;;;;1.57;1.30;;;;;;;7.21;100.00;94383.31;5022089;28;24511;-73
2022/04/07 01:21:27;;;;;;;1.17;0.90;;;;;;;7.33;100.00;94390.16;5030943;28;24431;-74
2022/04/07 01:24:02;;;;;;;2.13;0.80;;;;;;;7.31;100.00;94386.88;5016665;28;24428;-73
2022/04/07 01:26:31;;;;;;;0.80;0.60;;;;;;;7.19;100.00;94387.72;5023386;28;24855;-73
2022/04/07 01:28:59;;;;;;;4.47;0.80;;;;;;;7.16;100.00;94377.69;5011760;28;24444;-73
2022/04/07 01:31:26;;;;;;;1.33;0.47;;;;;;;7.22;100.00;94379.78;5011955;28;24872;-73
2022/04/07 01:33:57;;;;;;;1.13;0.45;;;;;;;7.31;100.00;94373.19;5011047;28;24427;-73
2022/04/07 01:36:24;;;;;;;0.70;0.40;;;;;;;7.24;100.00;94376.19;5021396;28;24460;-74
2022/04/07 01:38:51;;;;;;;1.08;0.55;;;;;;;7.30;100.00;94374.91;5017885;28;24436;-73
2022/04/07 01:41:20;;;;;;;0.90;0.70;;;;;;;7.27;100.00;94375.16;5027013;28;24440;-73
2022/04/07 01:43:50;;;;;;;1.50;0.85;;;;;;;7.33;100.00;94366.97;5011537;28;20844;-73
2022/04/07 01:46:16;;;;;;;0.95;0.80;;;;;;;7.25;100.00;94364.94;5013498;28;20812;-74
2022/04/07 01:48:44;;;;;;;1.02;0.75;;;;;;;7.33;100.00;94369.53;5011601;28;24437;-74
2022/04/07 01:51:12;;;;;;;1.35;0.50;;;;;;;7.32;100.00;94356.78;5011582;28;24448;-74
2022/04/07 01:53:39;;;;;;;1.48;0.70;;;;;;;7.32;100.00;94361.94;5014541;28;24494;-74
2022/04/07 01:56:07;;;;;;;1.98;0.90;;;;;;;7.38;100.00;94361.47;5023982;28;24456;-74
2022/04/07 01:58:35;;;;;;;1.15;0.70;;;;;;;7.35;100.00;94354.81;5011051;28;25003;-74
2022/04/07 02:01:04;;;;;;;0.93;0.70;;;;;;;7.34;100.00;94360.91;5011047;28;24455;-74
2022/04/07 02:03:30;;;;;;;1.63;0.85;;;;;;;7.31;100.00;94342.28;5027667;28;24490;-74
2022/04/07 02:06:10;;;;;;;1.67;0.70;;;;;;;7.33;100.00;94343.78;5011413;28;24432;-74
2022/04/07 02:08:37;;;;;;;0.55;0.43;;;;;;;7.33;100.00;94333.47;5021083;28;24431;-74
2022/04/07 02:11:03;;;;;;;2.45;0.80;;;;;;;7.32;100.00;94337.00;5017046;28;24498;-74
2022/04/07 02:13:32;;;;;;;1.40;0.90;;;;;;;7.33;100.00;94322.38;5026438;28;20828;-73
2022/04/07 02:15:58;;;;;;;1.70;0.68;;;;;;;7.39;100.00;94334.81;5015176;28;24483;-74
2022/04/07 02:18:26;;;;;;;2.00;0.80;;;;;;;7.25;100.00;94334.03;5030591;28;24979;-74
2022/04/07 02:20:52;;;;;;;1.90;1.00;;;;;;;7.30;100.00;94325.97;5017163;28;24498;-74
2022/04/07 02:23:19;;;;;;;0.83;0.60;;;;;;;7.34;100.00;94324.00;5027240;28;24932;-74
2022/04/07 02:25:45;;;;;;;1.27;0.50;;;;;;;7.22;100.00;94330.88;5030386;28;24797;-73
2022/04/07 02:28:12;;;;;;;0.90;0.60;;;;;;;7.24;100.00;94324.69;5030058;28;24801;-74
2022/04/07 02:30:38;;;;;;;1.48;0.50;;;;;;;7.23;100.00;94330.78;5029919;28;24447;-73
2022/04/07 02:33:05;;;;;;;1.00;0.57;;;;;;;7.29;100.00;94321.78;5030318;28;24435;-74
2022/04/07 02:35:33;;;;;;;0.90;0.50;;;;;;;7.16;100.00;94339.88;5029141;28;24447;-74
2022/04/07 02:38:00;;;;;;;0.93;0.43;;;;;;;7.14;100.00;94333.19;5016349;28;24522;-74
2022/04/07 02:40:27;;;;;;;0.75;0.60;;;;;;;7.15;100.00;94327.91;5030213;28;24527;-73
2022/04/07 02:42:53;;;;;;;1.48;0.60;;;;;;;7.09;100.00;94333.53;5029731;28;24448;-73
2022/04/07 02:45:20;;;;;;;1.08;0.70;;;;;;;7.05;100.00;94321.81;5030357;28;24459;-74
2022/04/07 02:47:46;;;;;;;1.70;0.65;;;;;;;6.98;100.00;94318.03;5026823;28;24447;-74
2022/04/07 02:50:13;;;;;;;1.35;0.70;;;;;;;6.99;100.00;94310.19;5011621;28;24472;-74
2022/04/07 02:52:41;;;;;;;1.60;0.90;;;;;;;6.96;100.00;94307.81;5021379;28;24852;-74
2022/04/07 02:55:08;;;;;;;1.30;0.68;;;;;;;6.86;100.00;94309.44;5030025;28;24420;-74
2022/04/07 02:57:35;;;;;;;1.40;0.73;;;;;;;6.82;100.00;94309.75;5026054;28;24444;-74
2022/04/07 03:00:02;;;;;;;1.13;0.63;;;;;;;6.90;100.00;94303.13;5014818;28;24515;-73
2022/04/07 03:02:28;;;;;;;1.63;0.60;;;;;;;6.85;100.00;94300.06;5028961;28;24439;-73
2022/04/07 03:04:55;;;;;;;0.60;0.55;;;;;;;6.79;100.00;94301.31;5010414;28;25020;-73
2022/04/07 03:07:21;;;;;;;0.70;0.60;;;;;;;6.95;100.00;94293.31;5025251;28;24432;-73
2022/04/07 03:09:49;;;;;;;1.63;0.60;;;;;;;6.95;100.00;94301.03;5010995;28;24448;-74
2022/04/07 03:12:17;;;;;;;1.75;0.77;;;;;;;6.91;100.00;94297.06;5016111;28;24436;-73
2022/04/07 03:14:43;;;;;;;0.60;0.50;;;;;;;6.96;100.00;94294.97;5021023;28;24452;-74
2022/04/07 03:17:10;;;;;;;1.02;0.60;;;;;;;7.00;100.00;94298.13;5021111;28;24452;-73
2022/04/07 03:19:37;;;;;;;0.85;0.60;;;;;;;6.95;100.00;94295.91;5029027;28;24470;-74
2022/04/07 03:22:03;;;;;;;2.10;0.88;;;;;;;7.04;100.00;94294.41;5014963;28;24490;-74
2022/04/07 03:24:30;;;;;;;0.90;0.52;;;;;;;7.04;100.00;94281.53;5029881;28;24451;-74
2022/04/07 03:26:58;;;;;;;0.93;0.70;;;;;;;7.01;100.00;94277.44;5018734;28;24450;-74
2022/04/07 03:29:26;;;;;;;1.00;0.63;;;;;;;7.05;100.00;94275.47;5010821;28;24869;-74
2022/04/07 03:31:52;;;;;;;2.30;0.60;;;;;;;7.10;100.00;94268.22;5027837;28;24509;-74
2022/04/07 03:34:19;;;;;;;2.00;0.70;;;;;;;7.10;100.00;94270.78;5029386;28;24443;-74
2022/04/07 03:36:45;;;;;;;1.53;0.63;;;;;;;7.16;100.00;94269.53;5023176;28;24521;-73
2022/04/07 03:39:13;;;;;;;1.00;0.50;;;;;;;7.03;100.00;94269.59;5026327;28;24841;-74
2022/04/07 03:41:40;;;;;;;1.02;0.60;;;;;;;7.08;100.00;94272.66;5032810;28;24803;-73
2022/04/07 03:44:09;;;;;;;1.90;0.70;;;;;;;7.03;100.00;94275.56;5013924;28;24447;-73
2022/04/07 03:46:36;;;;;;;0.65;0.43;;;;;;;7.05;100.00;94270.31;5013706;28;24491;-74
2022/04/07 03:49:03;;;;;;;1.33;0.50;;;;;;;7.06;100.00;94281.44;5015731;28;24440;-74
2022/04/07 03:51:29;;;;;;;1.23;0.50;;;;;;;7.00;100.00;94274.97;5019034;28;24448;-74
2022/04/07 03:53:56;;;;;;;0.63;0.50;;;;;;;6.97;100.00;94270.03;5015555;28;24490;-73
2022/04/07 03:56:22;;;;;;;1.00;0.63;;;;;;;6.91;100.00;94261.03;5014950;28;24456;-73
2022/04/07 03:58:49;;;;;;;2.50;0.60;;;;;;;6.93;100.00;94258.31;5013616;28;24439;-74
2022/04/07 04:01:17;;;;;;;2.45;0.90;;;;;;;6.87;100.00;94249.31;5013558;28;24444;-74
2022/04/07 04:03:44;;;;;;;1.50;0.63;;;;;;;6.88;100.00;94257.84;5028265;28;24440;-73
2022/04/07 04:06:10;;;;;;;0.93;0.40;;;;;;;6.85;100.00;94248.59;5030134;28;24440;-73
2022/04/07 04:08:37;;;;;;;0.60;0.50;;;;;;;6.89;100.00;94244.84;5032548;28;24436;-73
2022/04/07 04:11:03;;;;;;;1.55;0.77;;;;;;;6.93;100.00;94241.13;5043902;23;24463;-72
2022/04/07 04:13:31;;;;;;;0.55;0.50;;;;;;;6.98;100.00;94231.34;5006076;28;24444;-72
2022/04/07 04:15:58;;;;;;;0.50;0.40;;;;;;;7.01;100.00;94228.53;4994306;28;24453;-72
2022/04/07 04:18:26;;;;;;;1.40;0.52;;;;;;;7.10;100.00;94227.03;5012327;28;24437;-72
2022/04/07 04:20:52;;;;;;;1.20;0.60;;;;;;;7.08;100.00;94231.47;5005495;28;24854;-72
2022/04/07 04:23:19;;;;;;;1.10;0.70;;;;;;;7.11;100.00;94231.25;4993244;28;24460;-72
2022/04/07 04:25:47;;;;;;;1.58;0.70;;;;;;;7.14;100.00;94228.44;5006796;28;24440;-72
2022/04/07 04:28:13;;;;;;;1.30;0.50;;;;;;;7.07;100.00;94234.16;5009622;28;24567;-73
2022/04/07 04:30:39;;;;;;;1.27;0.60;;;;;;;7.21;100.00;94223.66;4991636;28;24422;-74
2022/04/07 04:33:06;;;;;;;4.03;0.75;;;;;;;7.13;100.00;94224.22;4999083;28;24498;-72
2022/04/07 04:35:34;;;;;;;0.57;0.57;;;;;;;7.08;100.00;94226.31;4998375;28;24503;-73
2022/04/07 04:38:00;;;;;;;1.17;0.60;;;;;;;7.13;100.00;94231.16;5004099;28;24464;-73
2022/04/07 04:40:27;;;;;;;1.23;0.60;;;;;;;7.17;100.00;94228.22;4992575;28;24491;-73
2022/04/07 04:42:53;;;;;;;1.20;0.70;;;;;;;7.14;100.00;94230.19;4997041;28;24464;-73
2022/04/07 04:45:20;;;;;;;0.73;0.68;;;;;;;7.14;100.00;94205.28;4993025;28;24835;-74
2022/04/07 04:47:46;;;;;;;0.52;0.50;;;;;;;7.06;100.00;94207.59;4994234;28;24437;-72
2022/04/07 04:50:13;;;;;;;1.00;0.60;;;;;;;7.07;100.00;94201.50;5005974;28;24437;-72
2022/04/07 04:52:41;;;;;;;1.50;0.70;;;;;;;7.24;100.00;94197.69;5003589;28;24611;-74
2022/04/07 04:55:08;;;;;;;1.13;0.60;;;;;;;7.24;100.00;94197.69;4998636;28;24440;-72
2022/04/07 04:57:34;;;;;;;6.00;0.70;;;;;;;7.15;100.00;94195.78;4993421;28;24448;-72
2022/04/07 05:00:01;;;;;;;3.40;0.80;;;;;;;7.08;100.00;94189.44;5007244;28;24852;-72
2022/04/07 05:02:27;;;;;;;1.50;0.70;;;;;;;6.99;100.00;94183.25;4991986;28;24565;-73
2022/04/07 05:04:54;;;;;;;1.52;0.60;;;;;;;7.03;100.00;94190.63;5002866;28;24989;-73
2022/04/07 05:07:20;;;;;;;1.50;0.65;;;;;;;6.93;100.00;94188.84;4998493;28;24436;-73
2022/04/07 05:09:48;;;;;;;1.00;0.50;;;;;;;7.00;100.00;94195.16;5000927;28;24440;-74
2022/04/07 05:12:14;;;;;;;1.23;0.70;;;;;;;7.00;100.00;94177.16;4991899;28;24425;-73
2022/04/07 05:14:41;;;;;;;1.53;0.70;;;;;;;6.86;100.00;94180.78;4992420;28;24462;-74
2022/04/07 05:17:08;;;;;;;0.60;0.60;;;;;;;6.82;100.00;94176.75;4992673;28;24468;-74
2022/04/07 05:19:34;;;;;;;0.60;0.57;;;;;;;6.88;100.00;94167.78;4993718;28;24520;-74
2022/04/07 05:22:00;;;;;;;1.92;1.50;;;;;;;6.86;100.00;94165.31;4991854;28;24448;-74
2022/04/07 05:24:27;;;;;;;1.55;1.10;;;;;;;6.85;100.00;94173.13;4992242;28;24786;-73
2022/04/07 05:26:55;;;;;;;2.72;1.35;;;;;;;6.93;100.00;94161.34;4996907;28;24839;-72
2022/04/07 05:29:21;;;;;;;1.00;0.80;;;;;;;6.96;100.00;94148.25;4992271;28;24437;-73
2022/04/07 05:31:48;;;;;;;1.10;0.60;;;;;;;7.01;100.00;94151.31;4996240;28;24444;-74
2022/04/07 05:34:14;;;;;;;1.10;0.57;;;;;;;7.06;100.00;94155.31;5011288;28;24490;-73
2022/04/07 05:36:42;;;;;;;1.00;0.70;;;;;;;7.05;100.00;94149.34;5002311;28;24456;-73
2022/04/07 05:39:08;;;;;;;2.13;0.90;;;;;;;7.09;100.00;94147.34;5004707;28;25081;-74
2022/04/07 05:41:35;;;;;;;0.70;0.40;;;;;;;7.12;100.00;94137.66;4999677;28;24819;-74
2022/04/07 05:44:02;;;;;;;1.08;0.45;;;;;;;7.20;100.00;94145.59;4991726;28;24445;-74
2022/04/07 05:46:29;;;;;;;1.15;0.50;;;;;;;7.35;100.00;94130.75;4991668;28;24416;-71
2022/04/07 05:48:55;;;;;;;2.35;1.55;;;;;;;7.37;100.00;94128.84;5000335;28;24445;-74
2022/04/07 05:51:22;;;;;;;0.80;0.60;;;;;;;7.39;100.00;94118.47;4997217;28;24819;-74
2022/04/07 05:53:48;;;;;;;0.90;0.40;;;;;;;7.49;100.00;94104.75;5007756;28;24491;-74
2022/04/07 05:56:14;;;;;;;0.35;0.30;;;;;;;7.41;100.00;94103.69;4991476;28;24453;-74
2022/04/07 05:58:41;;;;;;;0.70;0.40;;;;;;;7.49;100.00;94101.34;4993365;28;24436;-74
2022/04/07 06:01:09;;;;;;;0.85;0.40;;;;;;;7.60;100.00;94088.47;5000782;28;24795;-74
2022/04/07 06:03:36;;;;;;;0.30;0.30;;;;;;;7.57;100.00;94093.84;5000391;28;24795;-73
2022/04/07 06:06:02;;;;;;;0.40;0.20;;;;;;;7.65;100.00;94094.06;5000716;28;24532;-74
2022/04/07 06:08:29;;;;;;;0.60;0.30;;;;;;;7.68;100.00;94098.19;5006410;28;25017;-74
2022/04/07 06:10:55;;;;;;;0.40;0.30;;;;;;;7.75;100.00;94102.72;4996642;28;24499;-75
2022/04/07 06:13:22;;;;;;;1.00;0.30;;;;;;;7.72;100.00;94099.56;4997973;28;24842;-73
2022/04/07 06:15:48;;;;;;;0.70;0.30;;;;;;;7.80;100.00;94102.38;5010384;28;24440;-73
2022/04/07 06:18:16;;;;;;;0.57;0.37;;;;;;;7.78;100.00;94114.53;4995099;28;24476;-74
2022/04/07 06:20:43;;;;;;;0.30;0.30;;;;;;;7.79;100.00;94102.47;5009436;28;24539;-73
2022/04/07 06:23:09;;;;;;;1.00;0.40;;;;;;;7.76;100.00;94106.13;5004079;28;24996;-73
2022/04/07 06:25:36;;;;;;;0.50;0.32;;;;;;;7.67;100.00;94099.09;5000883;28;24524;-74
2022/04/07 06:28:04;;;;;;;1.27;0.40;;;;;;;7.59;100.00;94104.84;4996452;28;24444;-75
2022/04/07 06:30:31;;;;;;;0.80;0.55;;;;;;;7.64;100.00;94094.19;4993892;28;24495;-74
2022/04/07 06:32:57;;;;;;;0.60;0.30;;;;;;;7.67;100.00;94088.78;5002686;28;24445;-74
2022/04/07 06:35:25;;;;;;;0.40;0.30;;;;;;;7.57;100.00;94093.03;5000649;28;24439;-75
2022/04/07 06:37:53;;;;;;;1.08;0.47;;;;;;;7.65;100.00;94098.41;4994201;28;24456;-74
2022/04/07 06:40:21;;;;;;;0.40;0.30;;;;;;;7.60;100.00;94095.34;5010117;28;24451;-74
2022/04/07 06:42:48;;;;;;;0.52;0.40;;;;;;;7.68;100.00;94098.19;5010223;28;20790;-74
2022/04/07 06:45:15;;;;;;;0.98;0.40;;;;;;;7.74;100.00;94100.25;4998800;28;24444;-74
2022/04/07 06:47:42;;;;;;;0.28;0.28;;;;;;;7.78;100.00;94093.09;4991674;28;24859;-73
2022/04/07 06:50:11;;;;;;;0.52;0.30;;;;;;;7.81;100.00;94098.84;5005901;28;20784;-73
2022/04/07 06:52:40;;;;;;;0.90;0.43;;;;;;;7.84;100.00;94085.72;4998217;28;24830;-73
2022/04/07 06:55:08;;;;;;;1.00;0.40;;;;;;;7.87;100.00;94090.63;5010061;28;24950;-75
2022/04/07 06:57:48;;;;;;;0.70;0.30;;;;;;;7.97;100.00;94078.66;4995446;28;20780;-74
2022/04/07 07:00:15;;;;;;;0.50;0.30;;;;;;;8.01;100.00;94076.66;5001671;28;24535;-73
2022/04/07 07:02:41;;;;;;;0.65;0.38;;;;;;;7.97;100.00;94068.34;4991090;28;25001;-74
2022/04/07 07:05:09;;;;;;;0.65;0.30;;;;;;;7.97;100.00;94060.63;5001160;28;24436;-74
2022/04/07 07:07:36;;;;;;;0.80;0.30;;;;;;;8.11;100.00;94058.69;5003279;28;24424;-74
2022/04/07 07:10:04;;;;;;;1.43;0.63;;;;;;;8.07;100.00;94062.44;4993935;28;24513;-74
2022/04/07 07:12:30;;;;;;;0.70;0.30;;;;;;;8.08;100.00;94046.84;5008465;28;24616;-74
2022/04/07 07:14:57;;;;;;;0.30;0.22;;;;;;;8.12;100.00;94034.53;5004662;28;24436;-74
2022/04/07 07:17:23;;;;;;;0.30;0.20;;;;;;;8.32;100.00;94033.75;4996722;28;24453;-74
2022/04/07 07:19:50;;;;;;;0.75;0.40;;;;;;;8.29;100.00;94028.81;5003348;28;25048;-74
2022/04/07 07:22:16;;;;;;;0.43;0.32;;;;;;;8.37;100.00;94023.03;5005308;28;24439;-74
2022/04/07 07:24:43;;;;;;;0.40;0.22;;;;;;;8.41;100.00;94019.28;5005741;28;24559;-74
2022/04/07 07:27:10;;;;;;;0.40;0.30;;;;;;;8.42;100.00;94020.94;5002093;28;24964;-75
2022/04/07 07:29:37;;;;;;;0.75;0.30;;;;;;;8.35;100.00;94019.78;4999381;28;20812;-74
2022/04/07 07:32:04;;;;;;;0.90;0.30;;;;;;;8.41;100.00;94016.72;5008368;28;24452;-74
2022/04/07 07:34:30;;;;;;;0.50;0.30;;;;;;;8.47;100.00;94005.91;5000020;28;24444;-74
2022/04/07 07:36:56;;;;;;;0.95;0.40;;;;;;;8.33;100.00;94021.66;5001691;28;21202;-72
2022/04/07 07:39:23;;;;;;;3.75;0.40;;;;;;;8.38;100.00;94012.63;5008022;28;20779;-72
2022/04/07 07:41:49;;;;;;;0.70;0.40;;;;;;;8.38;100.00;93999.75;5007008;28;24494;-73
2022/04/07 07:44:17;;;;;;;1.45;0.60;;;;;;;8.45;100.00;94000.88;5007592;28;24472;-72
2022/04/07 07:46:44;;;;;;;0.70;0.40;;;;;;;8.42;100.00;93993.38;5006786;28;24515;-72
2022/04/07 07:49:10;;;;;;;0.93;0.40;;;;;;;8.40;100.00;93990.09;4999744;28;24492;-73
2022/04/07 07:51:37;;;;;;;1.70;0.50;;;;;;;8.48;100.00;93984.31;4993897;28;20806;-73
2022/04/07 07:54:04;;;;;;;0.68;0.38;;;;;;;8.41;100.00;93978.81;4995589;28;24946;-74
2022/04/07 07:56:30;;;;;;;1.02;0.50;;;;;;;8.47;100.00;93977.53;4998080;28;24978;-75
2022/04/07 07:58:57;;;;;;;1.10;0.50;;;;;;;8.48;100.00;93967.06;5002866;28;20794;-75
2022/04/07 08:01:25;;;;;;;2.30;0.47;;;;;;;8.71;100.00;93960.00;5005795;28;24444;-75
2022/04/07 08:03:51;;;;;;;0.90;0.40;;;;;;;8.78;100.00;93960.28;4998536;28;24441;-74
2022/04/07 08:06:18;;;;;;;0.50;0.30;;;;;;;8.86;100.00;93950.13;4994668;28;24838;-74
2022/04/07 08:08:44;;;;;;;4.50;0.73;;;;;;;8.98;100.00;93942.28;4999236;28;24444;-73
2022/04/07 08:11:11;;;;;;;1.38;0.40;;;;;;;8.96;100.00;93938.06;5012466;28;20814;-73
2022/04/07 08:13:37;;;;;;;1.40;0.30;;;;;;;9.13;100.00;93939.19;5001618;28;21214;-74
2022/04/07 08:16:05;;;;;;;0.65;0.40;;;;;;;9.11;100.00;93933.34;4994035;28;24420;-75
2022/04/07 08:18:32;;;;;;;1.52;0.60;;;;;;;9.23;100.00;93943.56;4994575;28;24501;-75
2022/04/07 08:20:59;;;;;;;1.23;0.73;;;;;;;9.13;100.00;93915.16;5009196;28;24451;-73
2022/04/07 08:23:27;;;;;;;2.13;0.65;;;;;;;9.16;100.00;93922.63;5013069;28;20786;-72
2022/04/07 08:25:53;;;;;;;0.70;0.30;;;;;;;9.12;100.00;93916.06;4997793;28;21193;-77
2022/04/07 08:28:19;;;;;;;3.70;0.43;;;;;;;9.24;100.00;93924.56;5013008;28;24439;-75
2022/04/07 08:30:46;;;;;;;0.65;0.30;;;;;;;9.50;100.00;93917.91;5011783;28;20840;-72
2022/04/07 08:33:12;;;;;;;0.50;0.30;;;;;;;9.56;100.00;93912.19;5013027;28;20783;-75
2022/04/07 08:35:40;;;;;;;1.40;0.30;;;;;;;9.58;100.00;93893.97;4999998;28;24986;-75
2022/04/07 08:38:09;;;;;;;1.90;0.40;;;;;;;9.67;100.00;93899.13;5007096;28;20794;-73
2022/04/07 08:40:37;;;;;;;1.20;0.40;;;;;;;9.74;100.00;93880.50;5000160;28;20784;-73
2022/04/07 08:43:03;;;;;;;1.23;0.90;;;;;;;9.80;100.00;93877.38;4993443;28;20851;-74
2022/04/07 08:45:30;;;;;;;0.95;0.70;;;;;;;9.69;100.00;93870.56;5009746;28;24447;-77
2022/04/07 08:47:58;;;;;;;0.70;0.43;;;;;;;9.85;100.00;93880.34;4998988;28;20871;-74
2022/04/07 08:50:27;;;;;;;1.60;0.77;;;;;;;9.86;100.00;93872.47;5010064;28;25158;-74
2022/04/07 08:52:55;;;;;;;0.55;0.30;;;;;;;9.83;100.00;93874.53;5012791;28;20774;-74
2022/04/07 08:55:21;;;;;;;0.80;0.40;;;;;;;9.85;100.00;93886.34;5012197;28;20963;-74
2022/04/07 08:57:48;;;;;;;3.08;0.40;;;;;;;9.90;100.00;93878.16;4996952;28;20837;-72
2022/04/07 09:00:16;;;;;;;1.38;0.43;;;;;;;9.99;100.00;93868.78;5003567;28;20782;-75
2022/04/07 09:02:43;;;;;;;6.30;0.40;;;;;;;10.02;100.00;93871.09;5007395;28;20792;-74
2022/04/07 09:05:11;;;;;;;0.52;0.20;;;;;;;10.07;100.00;93869.69;4996988;28;20788;-75
2022/04/07 09:07:37;;;;;;;0.80;0.28;;;;;;;10.05;100.00;93881.97;4997588;28;20779;-73
2022/04/07 09:10:06;;;;;;;0.90;0.22;;;;;;;10.01;100.00;93861.66;4999444;28;24827;-73
2022/04/07 09:12:34;;;;;;;0.52;0.20;;;;;;;10.08;100.00;93866.13;4999442;28;24521;-74
2022/04/07 09:15:01;;;;;;;0.63;0.30;;;;;;;10.01;100.00;93866.84;5004022;28;25009;-73
2022/04/07 09:17:27;;;;;;;1.67;0.30;;;;;;;9.92;100.00;93866.72;5005213;28;20798;-73
2022/04/07 09:19:54;;;;;;;0.63;0.20;;;;;;;9.86;100.00;93869.03;5010477;28;20782;-73
2022/04/07 09:22:29;;;;;;;0.80;0.30;;;;;;;9.65;100.00;93857.09;4995704;28;24432;-75
2022/04/07 09:24:55;;;;;;;2.40;0.30;;;;;;;9.62;100.00;93869.50;4997247;28;20776;-74
2022/04/07 09:27:23;;;;;;;1.13;0.30;;;;;;;9.68;100.00;93853.44;4994918;28;20768;-74
2022/04/07 09:29:56;;;;;;;0.93;0.50;;;;;;;9.67;100.00;93854.38;5010813;28;20816;-74
2022/04/07 09:32:24;;;;;;;1.27;0.50;;;;;;;9.67;100.00;93842.25;5001472;28;20821;-74
2022/04/07 09:34:54;;;;;;;0.52;0.38;;;;;;;9.71;100.00;93837.63;5003273;28;21373;-73
2022/04/07 09:37:22;;;;;;;0.60;0.20;;;;;;;9.58;100.00;93837.94;4998298;28;24453;-74
2022/04/07 09:39:48;;;;;;;0.80;0.30;;;;;;;9.42;100.00;93828.16;4999440;28;24440;-75
2022/04/07 09:42:22;;;;;;;1.08;0.50;;;;;;;9.45;100.00;93807.22;5003318;28;24503;-74
2022/04/07 09:44:54;;;;;;;0.38;0.38;;;;;;;9.57;100.00;93814.81;4999127;28;20697;-76
2022/04/07 09:47:21;;;;;;;0.50;0.20;;;;;;;9.87;100.00;93812.03;5008066;28;20890;-73
2022/04/07 09:49:49;;;;;;;0.50;0.30;;;;;;;10.10;100.00;93803.94;4996337;28;24815;-73
2022/04/07 09:52:20;;;;;;;0.52;0.20;;;;;;;9.94;100.00;93787.25;4994132;28;21471;-73
2022/04/07 09:54:50;;;;;;;0.50;0.20;;;;;;;9.87;100.00;93785.38;5007408;28;25008;-74
2022/04/07 09:57:18;;;;;;;0.63;0.20;;;;;;;10.11;100.00;93752.06;5011420;28;20803;-74
2022/04/07 09:59:46;;;;;;;1.42;0.35;;;;;;;10.34;100.00;93756.88;5000521;28;21454;-74
2022/04/07 10:02:15;;;;;;;0.85;0.30;;;;;;;10.34;100.00;93734.41;5005000;28;20812;-74
2022/04/07 10:04:43;;;;;;;0.50;0.30;;;;;;;10.48;100.00;93734.88;5001314;28;24424;-74
2022/04/07 10:07:11;;;;;;;1.33;0.30;;;;;;;10.83;100.00;93736.72;4991728;28;20823;-74
2022/04/07 10:09:40;;;;;;;1.10;0.25;;;;;;;10.80;100.00;93737.00;4991572;28;20929;-74
2022/04/07 10:12:08;;;;;;;2.50;0.25;;;;;;;10.64;100.00;93753.16;5003469;28;20912;-76
2022/04/07 10:14:36;;;;;;;0.20;0.15;;;;;;;10.82;100.00;93709.97;5000366;28;20819;-73
2022/04/07 10:17:03;;;;;;;0.77;0.30;;;;;;;11.09;100.00;93706.50;4991398;28;21387;-74
2022/04/07 10:19:36;;;;;;;0.90;0.30;;;;;;;11.06;100.00;93700.81;4991423;28;20788;-74
2022/04/07 10:22:20;;;;;;;0.30;0.10;;;;;;;11.32;100.00;93696.47;5004261;28;24436;-74
2022/04/07 10:24:49;;;;;;;2.58;0.30;;;;;;;11.43;100.00;93715.34;4993959;28;21380;-74
2022/04/07 10:27:20;;;;;;;1.60;0.20;;;;;;;11.39;100.00;93681.13;5009838;28;24459;-74
2022/04/07 10:30:03;;;;;;;1.20;0.20;;;;;;;11.29;100.00;93696.78;4995177;28;20780;-74
2022/04/07 10:32:36;;;;;;;1.25;0.40;;;;;;;11.16;100.00;93660.09;4995238;28;24859;-74
2022/04/07 10:35:04;;;;;;;0.35;0.20;;;;;;;11.13;99.48;93642.25;5001850;28;20692;-74
2022/04/07 10:37:41;;;;;;;1.05;0.25;;;;;;;11.11;100.00;93677.84;5003464;28;24443;-74
2022/04/07 10:40:33;;;;;;;2.22;0.20;;;;;;;11.14;100.00;93678.38;5009090;28;20844;-73
2022/04/07 10:43:20;;;;;;;0.40;0.20;;;;;;;11.44;100.00;93683.28;4999015;28;20752;-73
2022/04/07 10:45:48;;;;;;;0.17;0.10;;;;;;;11.47;100.00;93664.81;4999820;28;20754;-73
2022/04/07 10:48:24;;;;;;;0.50;0.10;;;;;;;11.57;100.00;93684.50;4995696;28;24479;-77
2022/04/07 10:50:53;;;;;;;2.00;0.13;;;;;;;11.37;100.00;93664.91;4998823;28;24472;-73
2022/04/07 10:53:22;;;;;;;0.90;0.30;;;;;;;11.34;100.00;93666.03;5011874;28;24459;-73
2022/04/07 10:56:05;;;;;;;0.20;0.17;;;;;;;11.30;100.00;93662.13;4994658;28;24528;-73
2022/04/07 10:58:51;;;;;;;0.50;0.10;;;;;;;11.30;100.00;93650.94;5005404;28;24587;-74
2022/04/07 11:01:57;;;;;;;0.53;0.20;;;;;;;11.64;100.00;93656.16;5012579;28;24486;-74
2022/04/07 11:04:31;;;;;;;0.77;0.30;;;;;;;12.02;100.00;93647.13;5013992;28;24420;-74
2022/04/07 11:07:14;;;;;;;0.95;0.20;;;;;;;11.55;100.00;93649.31;4997356;28;24437;-74
2022/04/07 11:09:45;;;;;;;1.70;0.20;;;;;;;11.78;100.00;93631.44;5006955;28;24517;-74
2022/04/07 11:12:16;;;;;;;0.47;0.20;;;;;;;11.59;100.00;93643.66;4997329;28;24447;-73
2022/04/07 11:14:43;;;;;;;0.77;0.27;;;;;;;11.66;100.00;93638.66;4994677;28;24469;-75
2022/04/07 11:17:15;;;;;;;0.82;0.30;;;;;;;11.46;100.00;93619.94;4995114;28;24464;-74
2022/04/07 11:19:53;;;;;;;0.80;0.30;;;;;;;11.63;100.00;93651.94;5009823;28;24457;-74
2022/04/07 11:22:41;;;;;;;0.60;0.20;;;;;;;11.39;100.00;93619.75;4999021;28;24539;-74
2022/04/07 11:25:09;;;;;;;0.85;0.45;;;;;;;11.22;100.00;93610.25;5003022;28;24433;-73
2022/04/07 11:27:39;;;;;;;1.73;0.22;;;;;;;11.00;100.00;93636.66;4993745;28;24445;-74
2022/04/07 11:30:07;;;;;;;1.10;0.10;;;;;;;11.13;100.00;93637.88;4996479;28;24993;-76
2022/04/07 11:32:34;;;;;;;3.60;0.20;;;;;;;11.16;100.00;93623.81;5008478;28;24441;-74
2022/04/07 11:35:14;;;;;;;1.63;0.20;;;;;;;11.17;100.00;93615.09;4996262;28;24437;-73